sensor_id;sensor_type;location;lat;lon;timestamp;temperature;humidity
6429;DHT22;3247;48.946;10.220;2023-08-24T00:00:40;16.20;99.90
6429;DHT22;3247;48.946;10.220;2023-08-24T00:03:06;16.20;99.90
6429;DHT22;3247;48.946;10.220;2023-08-24T00:05:35;16.20;99.90
6429;DHT22;3247;48.946;10.220;2023-08-24T00:08:04;16.10;99.90
6429;DHT22;3247;48.946;10.220;2023-08-24T00:10:30;16.00;99.90
6429;DHT22;3247;48.946;10.220;2023-08-24T00:12:55;15.90;99.90
6429;DHT22;3247;48.946;10.220;2023-08-24T00:15:20;15.80;99.90
6429;DHT22;3247;48.946;10.220;2023-08-24T00:17:46;15.70;99.90
6429;DHT22;3247;48.946;10.220;2023-08-24T00:20:11;15.60;99.90
6429;DHT22;3247;48.946;10.220;2023-08-24T00:22:37;15.60;99.90
6429;DHT22;3247;48.946;10.220;2023-08-24T00:25:03;15.60;99.90
6429;DHT22;3247;48.946;10.220;2023-08-24T00:27:30;15.50;99.90
6429;DHT22;3247;48.946;10.220;2023-08-24T00:29:55;15.50;99.90
6429;DHT22;3247;48.946;10.220;2023-08-24T00:32:22;15.50;99.90
6429;DHT22;3247;48.946;10.220;2023-08-24T00:34:48;15.50;99.90
6429;DHT22;3247;48.946;10.220;2023-08-24T00:37:13;15.50;99.90
6429;DHT22;3247;48.946;10.220;2023-08-24T00:39:38;15.50;99.90
6429;DHT22;3247;48.946;10.220;2023-08-24T00:42:04;15.50;99.90
6429;DHT22;3247;48.946;10.220;2023-08-24T00:44:31;15.50;99.90
6429;DHT22;3247;48.946;10.220;2023-08-24T00:46:56;15.50;99.90
6429;DHT22;3247;48.946;10.220;2023-08-24T00:49:22;15.40;99.90
6429;DHT22;3247;48.946;10.220;2023-08-24T00:51:48;15.50;99.90
6429;DHT22;3247;48.946;10.220;2023-08-24T00:54:13;15.50;99.90
6429;DHT22;3247;48.946;10.220;2023-08-24T00:56:39;15.50;99.90
6429;DHT22;3247;48.946;10.220;2023-08-24T00:59:05;15.40;99.90
6429;DHT22;3247;48.946;10.220;2023-08-24T01:01:30;15.40;99.90
6429;DHT22;3247;48.946;10.220;2023-08-24T01:03:56;15.40;99.90
6429;DHT22;3247;48.946;10.220;2023-08-24T01:06:22;15.40;99.90
6429;DHT22;3247;48.946;10.220;2023-08-24T01:08:47;15.30;99.90
6429;DHT22;3247;48.946;10.220;2023-08-24T01:11:26;15.30;99.90
6429;DHT22;3247;48.946;10.220;2023-08-24T01:16:29;15.20;99.90
6429;DHT22;3247;48.946;10.220;2023-08-24T01:18:57;15.10;99.90
6429;DHT22;3247;48.946;10.220;2023-08-24T01:21:22;15.10;99.90
6429;DHT22;3247;48.946;10.220;2023-08-24T01:23:53;15.10;99.90
6429;DHT22;3247;48.946;10.220;2023-08-24T01:26:24;15.10;99.90
6429;DHT22;3247;48.946;10.220;2023-08-24T01:28:50;15.00;99.90
6429;DHT22;3247;48.946;10.220;2023-08-24T01:31:16;15.10;99.90
6429;DHT22;3247;48.946;10.220;2023-08-24T01:33:42;15.10;99.90
6429;DHT22;3247;48.946;10.220;2023-08-24T01:36:08;15.20;99.90
6429;DHT22;3247;48.946;10.220;2023-08-24T01:38:34;15.20;99.90
6429;DHT22;3247;48.946;10.220;2023-08-24T01:41:17;15.30;99.90
6429;DHT22;3247;48.946;10.220;2023-08-24T01:43:45;15.30;99.90
6429;DHT22;3247;48.946;10.220;2023-08-24T01:46:12;15.30;99.90
6429;DHT22;3247;48.946;10.220;2023-08-24T01:48:40;15.20;99.90
6429;DHT22;3247;48.946;10.220;2023-08-24T01:51:06;15.20;99.90
6429;DHT22;3247;48.946;10.220;2023-08-24T01:53:31;15.20;99.90
6429;DHT22;3247;48.946;10.220;2023-08-24T01:55:58;15.10;99.90
6429;DHT22;3247;48.946;10.220;2023-08-24T01:58:23;15.10;99.90
6429;DHT22;3247;48.946;10.220;2023-08-24T02:00:49;15.00;99.90
6429;DHT22;3247;48.946;10.220;2023-08-24T02:03:14;15.10;99.90
6429;DHT22;3247;48.946;10.220;2023-08-24T02:05:40;15.30;99.90
6429;DHT22;3247;48.946;10.220;2023-08-24T02:08:05;15.10;99.90
6429;DHT22;3247;48.946;10.220;2023-08-24T02:10:31;15.10;99.90
6429;DHT22;3247;48.946;10.220;2023-08-24T02:12:56;15.10;99.90
6429;DHT22;3247;48.946;10.220;2023-08-24T02:15:22;15.10;99.90
6429;DHT22;3247;48.946;10.220;2023-08-24T02:17:47;15.10;99.90
6429;DHT22;3247;48.946;10.220;2023-08-24T02:20:12;15.10;99.90
6429;DHT22;3247;48.946;10.220;2023-08-24T02:22:38;15.20;99.90
6429;DHT22;3247;48.946;10.220;2023-08-24T02:25:04;15.20;99.90
6429;DHT22;3247;48.946;10.220;2023-08-24T02:27:30;15.10;99.90
6429;DHT22;3247;48.946;10.220;2023-08-24T02:29:56;15.00;99.90
6429;DHT22;3247;48.946;10.220;2023-08-24T02:32:24;15.00;99.90
6429;DHT22;3247;48.946;10.220;2023-08-24T02:34:50;14.90;99.90
6429;DHT22;3247;48.946;10.220;2023-08-24T02:37:15;14.90;99.90
6429;DHT22;3247;48.946;10.220;2023-08-24T02:39:41;14.80;99.90
6429;DHT22;3247;48.946;10.220;2023-08-24T02:42:07;14.80;99.90
6429;DHT22;3247;48.946;10.220;2023-08-24T02:44:33;14.80;99.90
6429;DHT22;3247;48.946;10.220;2023-08-24T02:46:58;14.80;99.90
6429;DHT22;3247;48.946;10.220;2023-08-24T02:49:24;14.80;99.90
6429;DHT22;3247;48.946;10.220;2023-08-24T02:51:49;14.80;99.90
6429;DHT22;3247;48.946;10.220;2023-08-24T02:54:15;14.70;99.90
6429;DHT22;3247;48.946;10.220;2023-08-24T02:56:40;14.70;99.90
6429;DHT22;3247;48.946;10.220;2023-08-24T02:59:06;14.80;99.90
6429;DHT22;3247;48.946;10.220;2023-08-24T03:01:31;14.80;99.90
6429;DHT22;3247;48.946;10.220;2023-08-24T03:03:57;14.80;99.90
6429;DHT22;3247;48.946;10.220;2023-08-24T03:06:22;14.70;99.90
6429;DHT22;3247;48.946;10.220;2023-08-24T03:08:51;14.70;99.90
6429;DHT22;3247;48.946;10.220;2023-08-24T03:11:16;14.50;99.90
6429;DHT22;3247;48.946;10.220;2023-08-24T03:13:41;14.40;99.90
6429;DHT22;3247;48.946;10.220;2023-08-24T03:16:08;14.40;99.90
6429;DHT22;3247;48.946;10.220;2023-08-24T03:18:33;14.30;99.90
6429;DHT22;3247;48.946;10.220;2023-08-24T03:20:59;14.30;99.90
6429;DHT22;3247;48.946;10.220;2023-08-24T03:23:25;14.30;99.90
6429;DHT22;3247;48.946;10.220;2023-08-24T03:25:50;14.30;99.90
6429;DHT22;3247;48.946;10.220;2023-08-24T03:28:15;14.30;99.90
6429;DHT22;3247;48.946;10.220;2023-08-24T03:30:47;14.40;99.90
6429;DHT22;3247;48.946;10.220;2023-08-24T03:33:13;14.40;99.90
6429;DHT22;3247;48.946;10.220;2023-08-24T03:35:39;14.40;99.90
6429;DHT22;3247;48.946;10.220;2023-08-24T03:38:04;14.40;99.90
6429;DHT22;3247;48.946;10.220;2023-08-24T03:40:30;14.50;99.90
6429;DHT22;3247;48.946;10.220;2023-08-24T03:42:55;14.60;99.90
6429;DHT22;3247;48.946;10.220;2023-08-24T03:45:21;14.60;99.90
6429;DHT22;3247;48.946;10.220;2023-08-24T03:47:46;14.50;99.90
6429;DHT22;3247;48.946;10.220;2023-08-24T03:50:12;14.60;99.90
6429;DHT22;3247;48.946;10.220;2023-08-24T03:52:37;14.60;99.90
6429;DHT22;3247;48.946;10.220;2023-08-24T03:55:05;14.60;99.90
6429;DHT22;3247;48.946;10.220;2023-08-24T03:57:30;14.60;99.90
6429;DHT22;3247;48.946;10.220;2023-08-24T03:59:56;14.70;99.90
6429;DHT22;3247;48.946;10.220;2023-08-24T04:02:24;14.70;99.90
6429;DHT22;3247;48.946;10.220;2023-08-24T04:04:50;14.60;99.90
6429;DHT22;3247;48.946;10.220;2023-08-24T04:07:15;14.60;99.90
6429;DHT22;3247;48.946;10.220;2023-08-24T04:09:41;14.60;99.90
6429;DHT22;3247;48.946;10.220;2023-08-24T04:12:06;14.60;99.90
6429;DHT22;3247;48.946;10.220;2023-08-24T04:14:32;14.60;99.90
6429;DHT22;3247;48.946;10.220;2023-08-24T04:16:57;14.70;99.90
6429;DHT22;3247;48.946;10.220;2023-08-24T04:19:23;14.60;99.90
6429;DHT22;3247;48.946;10.220;2023-08-24T04:21:48;14.60;99.90
6429;DHT22;3247;48.946;10.220;2023-08-24T04:24:13;14.60;99.90
6429;DHT22;3247;48.946;10.220;2023-08-24T04:26:39;14.60;99.90
6429;DHT22;3247;48.946;10.220;2023-08-24T04:29:04;14.50;99.90
6429;DHT22;3247;48.946;10.220;2023-08-24T04:31:30;14.50;99.90
6429;DHT22;3247;48.946;10.220;2023-08-24T04:33:55;14.50;99.90
6429;DHT22;3247;48.946;10.220;2023-08-24T04:36:20;14.50;99.90
6429;DHT22;3247;48.946;10.220;2023-08-24T04:38:46;14.60;99.90
6429;DHT22;3247;48.946;10.220;2023-08-24T04:41:11;14.60;99.90
6429;DHT22;3247;48.946;10.220;2023-08-24T04:43:37;14.70;99.90
6429;DHT22;3247;48.946;10.220;2023-08-24T04:46:03;14.80;99.90
6429;DHT22;3247;48.946;10.220;2023-08-24T04:48:28;14.80;99.90
6429;DHT22;3247;48.946;10.220;2023-08-24T04:50:59;15.00;99.90
6429;DHT22;3247;48.946;10.220;2023-08-24T04:53:25;15.10;99.90
6429;DHT22;3247;48.946;10.220;2023-08-24T04:55:51;15.20;99.90
6429;DHT22;3247;48.946;10.220;2023-08-24T04:58:16;15.40;99.90
6429;DHT22;3247;48.946;10.220;2023-08-24T05:00:42;15.50;99.90
6429;DHT22;3247;48.946;10.220;2023-08-24T05:03:07;15.70;99.90
6429;DHT22;3247;48.946;10.220;2023-08-24T05:05:33;15.80;99.90
6429;DHT22;3247;48.946;10.220;2023-08-24T05:07:59;15.90;99.90
6429;DHT22;3247;48.946;10.220;2023-08-24T05:10:25;16.10;99.90
6429;DHT22;3247;48.946;10.220;2023-08-24T05:12:50;16.20;99.90
6429;DHT22;3247;48.946;10.220;2023-08-24T05:15:16;16.20;99.90
6429;DHT22;3247;48.946;10.220;2023-08-24T05:17:41;16.20;99.90
6429;DHT22;3247;48.946;10.220;2023-08-24T05:20:07;16.30;99.90
6429;DHT22;3247;48.946;10.220;2023-08-24T05:22:38;16.50;99.90
6429;DHT22;3247;48.946;10.220;2023-08-24T05:25:04;16.60;99.90
6429;DHT22;3247;48.946;10.220;2023-08-24T05:27:30;16.70;99.90
6429;DHT22;3247;48.946;10.220;2023-08-24T05:29:55;16.80;99.90
6429;DHT22;3247;48.946;10.220;2023-08-24T05:32:21;16.90;99.90
6429;DHT22;3247;48.946;10.220;2023-08-24T05:34:46;17.00;99.90
6429;DHT22;3247;48.946;10.220;2023-08-24T05:37:12;17.20;99.90
6429;DHT22;3247;48.946;10.220;2023-08-24T05:39:37;17.30;99.90
6429;DHT22;3247;48.946;10.220;2023-08-24T05:42:03;17.50;99.90
6429;DHT22;3247;48.946;10.220;2023-08-24T05:44:29;17.70;99.90
6429;DHT22;3247;48.946;10.220;2023-08-24T05:46:54;17.90;99.90
6429;DHT22;3247;48.946;10.220;2023-08-24T05:49:20;17.90;99.90
6429;DHT22;3247;48.946;10.220;2023-08-24T05:51:45;18.00;99.90
6429;DHT22;3247;48.946;10.220;2023-08-24T05:54:11;18.00;99.90
6429;DHT22;3247;48.946;10.220;2023-08-24T05:56:38;18.10;99.90
6429;DHT22;3247;48.946;10.220;2023-08-24T05:59:04;17.50;99.90
6429;DHT22;3247;48.946;10.220;2023-08-24T06:01:34;18.30;99.90
6429;DHT22;3247;48.946;10.220;2023-08-24T06:04:04;18.40;99.90
6429;DHT22;3247;48.946;10.220;2023-08-24T06:06:30;18.50;99.90
6429;DHT22;3247;48.946;10.220;2023-08-24T06:08:55;18.60;99.90
6429;DHT22;3247;48.946;10.220;2023-08-24T06:11:20;18.80;99.90
6429;DHT22;3247;48.946;10.220;2023-08-24T06:13:46;19.20;99.90
6429;DHT22;3247;48.946;10.220;2023-08-24T06:16:11;19.60;99.90
6429;DHT22;3247;48.946;10.220;2023-08-24T06:18:37;19.90;99.90
6429;DHT22;3247;48.946;10.220;2023-08-24T06:21:02;20.20;99.90
6429;DHT22;3247;48.946;10.220;2023-08-24T06:23:28;20.60;99.90
6429;DHT22;3247;48.946;10.220;2023-08-24T06:25:53;21.10;99.90
6429;DHT22;3247;48.946;10.220;2023-08-24T06:28:18;22.00;99.90
6429;DHT22;3247;48.946;10.220;2023-08-24T06:30:44;22.50;99.90
6429;DHT22;3247;48.946;10.220;2023-08-24T06:33:11;23.10;99.90
6429;DHT22;3247;48.946;10.220;2023-08-24T06:35:37;23.50;99.90
6429;DHT22;3247;48.946;10.220;2023-08-24T06:38:03;24.30;99.90
6429;DHT22;3247;48.946;10.220;2023-08-24T06:40:29;24.90;99.90
6429;DHT22;3247;48.946;10.220;2023-08-24T06:42:54;25.60;99.90
6429;DHT22;3247;48.946;10.220;2023-08-24T06:45:20;26.10;99.90
6429;DHT22;3247;48.946;10.220;2023-08-24T06:47:45;26.60;99.90
6429;DHT22;3247;48.946;10.220;2023-08-24T06:50:11;26.50;99.90
6429;DHT22;3247;48.946;10.220;2023-08-24T06:52:37;27.10;99.90
6429;DHT22;3247;48.946;10.220;2023-08-24T06:55:02;27.90;99.90
6429;DHT22;3247;48.946;10.220;2023-08-24T06:57:28;28.50;99.90
6429;DHT22;3247;48.946;10.220;2023-08-24T06:59:54;28.90;99.90
6429;DHT22;3247;48.946;10.220;2023-08-24T07:02:19;28.90;99.90
6429;DHT22;3247;48.946;10.220;2023-08-24T07:04:45;28.90;99.90
6429;DHT22;3247;48.946;10.220;2023-08-24T07:07:11;28.30;99.90
6429;DHT22;3247;48.946;10.220;2023-08-24T07:09:36;28.10;99.90
6429;DHT22;3247;48.946;10.220;2023-08-24T07:12:02;27.60;99.90
6429;DHT22;3247;48.946;10.220;2023-08-24T07:14:28;26.60;99.90
6429;DHT22;3247;48.946;10.220;2023-08-24T07:16:54;26.60;99.90
6429;DHT22;3247;48.946;10.220;2023-08-24T07:19:19;26.80;99.90
6429;DHT22;3247;48.946;10.220;2023-08-24T07:21:46;26.10;99.90
6429;DHT22;3247;48.946;10.220;2023-08-24T07:24:11;26.50;99.90
6429;DHT22;3247;48.946;10.220;2023-08-24T07:26:36;26.30;99.90
6429;DHT22;3247;48.946;10.220;2023-08-24T07:29:02;26.70;99.90
6429;DHT22;3247;48.946;10.220;2023-08-24T07:31:28;27.30;99.90
6429;DHT22;3247;48.946;10.220;2023-08-24T07:33:53;27.10;99.90
6429;DHT22;3247;48.946;10.220;2023-08-24T07:36:18;26.60;99.90
6429;DHT22;3247;48.946;10.220;2023-08-24T07:38:44;25.70;99.90
6429;DHT22;3247;48.946;10.220;2023-08-24T07:41:10;25.60;99.90
6429;DHT22;3247;48.946;10.220;2023-08-24T07:43:37;25.30;99.90
6429;DHT22;3247;48.946;10.220;2023-08-24T07:46:02;24.90;99.90
6429;DHT22;3247;48.946;10.220;2023-08-24T07:48:28;24.60;99.90
6429;DHT22;3247;48.946;10.220;2023-08-24T07:50:53;24.20;99.90
6429;DHT22;3247;48.946;10.220;2023-08-24T07:53:19;24.30;99.90
6429;DHT22;3247;48.946;10.220;2023-08-24T07:55:45;24.40;99.90
6429;DHT22;3247;48.946;10.220;2023-08-24T07:58:11;24.20;99.90
6429;DHT22;3247;48.946;10.220;2023-08-24T08:00:36;24.10;99.90
6429;DHT22;3247;48.946;10.220;2023-08-24T08:03:02;24.10;99.90
6429;DHT22;3247;48.946;10.220;2023-08-24T08:05:27;24.10;99.90
6429;DHT22;3247;48.946;10.220;2023-08-24T08:07:52;25.00;99.90
6429;DHT22;3247;48.946;10.220;2023-08-24T08:10:18;26.50;99.90
6429;DHT22;3247;48.946;10.220;2023-08-24T08:12:45;27.80;99.90
6429;DHT22;3247;48.946;10.220;2023-08-24T08:15:11;28.00;99.90
6429;DHT22;3247;48.946;10.220;2023-08-24T08:17:36;28.30;99.90
6429;DHT22;3247;48.946;10.220;2023-08-24T08:20:02;29.20;99.90
6429;DHT22;3247;48.946;10.220;2023-08-24T08:22:28;29.40;99.90
6429;DHT22;3247;48.946;10.220;2023-08-24T08:24:54;28.90;99.90
6429;DHT22;3247;48.946;10.220;2023-08-24T08:27:21;29.70;99.90
6429;DHT22;3247;48.946;10.220;2023-08-24T08:29:47;30.10;99.90
6429;DHT22;3247;48.946;10.220;2023-08-24T08:32:12;30.70;99.90
6429;DHT22;3247;48.946;10.220;2023-08-24T08:34:38;30.40;99.90
6429;DHT22;3247;48.946;10.220;2023-08-24T08:37:03;31.10;99.90
6429;DHT22;3247;48.946;10.220;2023-08-24T08:39:29;31.20;99.90
6429;DHT22;3247;48.946;10.220;2023-08-24T08:41:54;31.30;99.90
6429;DHT22;3247;48.946;10.220;2023-08-24T08:44:20;30.50;99.90
6429;DHT22;3247;48.946;10.220;2023-08-24T08:46:47;30.30;99.90
6429;DHT22;3247;48.946;10.220;2023-08-24T08:49:13;31.00;99.90
6429;DHT22;3247;48.946;10.220;2023-08-24T08:51:41;31.30;99.90
6429;DHT22;3247;48.946;10.220;2023-08-24T08:54:06;31.60;99.90
6429;DHT22;3247;48.946;10.220;2023-08-24T08:56:32;31.60;99.90
6429;DHT22;3247;48.946;10.220;2023-08-24T08:58:58;32.80;99.90
6429;DHT22;3247;48.946;10.220;2023-08-24T09:01:24;32.60;99.90
6429;DHT22;3247;48.946;10.220;2023-08-24T09:03:50;32.80;99.90
6429;DHT22;3247;48.946;10.220;2023-08-24T09:06:16;32.10;99.90
6429;DHT22;3247;48.946;10.220;2023-08-24T09:08:41;31.80;99.90
6429;DHT22;3247;48.946;10.220;2023-08-24T09:11:07;31.60;99.90
6429;DHT22;3247;48.946;10.220;2023-08-24T09:13:33;31.30;99.90
6429;DHT22;3247;48.946;10.220;2023-08-24T09:16:05;30.70;99.90
6429;DHT22;3247;48.946;10.220;2023-08-24T09:18:38;30.10;99.90
6429;DHT22;3247;48.946;10.220;2023-08-24T09:21:10;29.80;99.90
6429;DHT22;3247;48.946;10.220;2023-08-24T09:23:37;30.00;99.90
6429;DHT22;3247;48.946;10.220;2023-08-24T09:26:02;29.80;99.90
6429;DHT22;3247;48.946;10.220;2023-08-24T09:28:29;29.70;99.90
6429;DHT22;3247;48.946;10.220;2023-08-24T09:31:00;29.80;99.90
6429;DHT22;3247;48.946;10.220;2023-08-24T09:33:26;30.20;99.90
6429;DHT22;3247;48.946;10.220;2023-08-24T09:35:53;30.20;99.90
6429;DHT22;3247;48.946;10.220;2023-08-24T09:38:19;30.40;99.90
6429;DHT22;3247;48.946;10.220;2023-08-24T09:40:46;30.40;99.90
6429;DHT22;3247;48.946;10.220;2023-08-24T09:43:14;30.30;99.90
6429;DHT22;3247;48.946;10.220;2023-08-24T09:45:52;30.50;99.90
6429;DHT22;3247;48.946;10.220;2023-08-24T09:48:18;30.30;99.90
6429;DHT22;3247;48.946;10.220;2023-08-24T09:50:45;30.30;99.90
6429;DHT22;3247;48.946;10.220;2023-08-24T09:53:18;30.60;99.90
6429;DHT22;3247;48.946;10.220;2023-08-24T09:55:46;30.70;99.90
6429;DHT22;3247;48.946;10.220;2023-08-24T09:58:14;30.70;99.90
6429;DHT22;3247;48.946;10.220;2023-08-24T10:00:43;30.90;99.90
6429;DHT22;3247;48.946;10.220;2023-08-24T10:03:10;30.80;99.90
6429;DHT22;3247;48.946;10.220;2023-08-24T10:05:36;30.80;99.90
6429;DHT22;3247;48.946;10.220;2023-08-24T10:08:02;30.70;99.90
6429;DHT22;3247;48.946;10.220;2023-08-24T10:10:28;30.50;99.90
6429;DHT22;3247;48.946;10.220;2023-08-24T10:12:58;30.60;99.90
6429;DHT22;3247;48.946;10.220;2023-08-24T10:15:24;30.40;99.90
6429;DHT22;3247;48.946;10.220;2023-08-24T10:17:51;30.40;99.90
6429;DHT22;3247;48.946;10.220;2023-08-24T10:20:20;30.40;99.90
6429;DHT22;3247;48.946;10.220;2023-08-24T10:22:46;30.50;99.90
6429;DHT22;3247;48.946;10.220;2023-08-24T10:25:12;30.60;99.90
6429;DHT22;3247;48.946;10.220;2023-08-24T10:27:38;30.60;99.90
6429;DHT22;3247;48.946;10.220;2023-08-24T10:30:09;30.50;99.90
6429;DHT22;3247;48.946;10.220;2023-08-24T10:32:40;30.30;99.90
6429;DHT22;3247;48.946;10.220;2023-08-24T10:35:07;30.20;99.90
6429;DHT22;3247;48.946;10.220;2023-08-24T10:37:33;30.40;99.90
6429;DHT22;3247;48.946;10.220;2023-08-24T10:39:59;30.40;99.90
6429;DHT22;3247;48.946;10.220;2023-08-24T10:42:25;30.50;99.90
6429;DHT22;3247;48.946;10.220;2023-08-24T10:44:51;30.40;99.90
6429;DHT22;3247;48.946;10.220;2023-08-24T10:49:43;30.40;99.90
6429;DHT22;3247;48.946;10.220;2023-08-24T10:54:47;30.30;99.90
6429;DHT22;3247;48.946;10.220;2023-08-24T10:57:17;30.40;99.90
6429;DHT22;3247;48.946;10.220;2023-08-24T10:59:43;30.40;99.90
6429;DHT22;3247;48.946;10.220;2023-08-24T11:02:28;30.40;99.90
6429;DHT22;3247;48.946;10.220;2023-08-24T11:07:47;30.60;99.90
6429;DHT22;3247;48.946;10.220;2023-08-24T11:10:13;30.70;99.90
6429;DHT22;3247;48.946;10.220;2023-08-24T11:18:12;30.90;99.90
6429;DHT22;3247;48.946;10.220;2023-08-24T11:20:45;30.80;99.90
6429;DHT22;3247;48.946;10.220;2023-08-24T11:23:11;30.90;99.90
6429;DHT22;3247;48.946;10.220;2023-08-24T11:25:36;30.90;99.90
6429;DHT22;3247;48.946;10.220;2023-08-24T11:28:05;31.00;99.90
6429;DHT22;3247;48.946;10.220;2023-08-24T11:30:31;31.00;99.90
6429;DHT22;3247;48.946;10.220;2023-08-24T11:33:12;31.20;99.90
6429;DHT22;3247;48.946;10.220;2023-08-24T11:35:44;31.20;99.90
6429;DHT22;3247;48.946;10.220;2023-08-24T11:38:10;31.30;99.90
6429;DHT22;3247;48.946;10.220;2023-08-24T11:40:36;31.30;99.90
6429;DHT22;3247;48.946;10.220;2023-08-24T11:43:01;31.50;99.90
6429;DHT22;3247;48.946;10.220;2023-08-24T11:45:30;31.40;99.90
6429;DHT22;3247;48.946;10.220;2023-08-24T11:47:57;31.40;99.90
6429;DHT22;3247;48.946;10.220;2023-08-24T11:50:23;31.50;99.90
6429;DHT22;3247;48.946;10.220;2023-08-24T11:52:48;31.60;99.90
6429;DHT22;3247;48.946;10.220;2023-08-24T11:55:14;31.80;99.90
6429;DHT22;3247;48.946;10.220;2023-08-24T11:57:41;31.80;99.90
6429;DHT22;3247;48.946;10.220;2023-08-24T12:00:07;31.80;99.90
6429;DHT22;3247;48.946;10.220;2023-08-24T12:02:42;31.80;99.90
6429;DHT22;3247;48.946;10.220;2023-08-24T12:05:07;31.80;99.90
6429;DHT22;3247;48.946;10.220;2023-08-24T12:07:33;31.80;99.90
6429;DHT22;3247;48.946;10.220;2023-08-24T12:10:00;31.70;99.90
6429;DHT22;3247;48.946;10.220;2023-08-24T12:12:26;31.60;99.90
6429;DHT22;3247;48.946;10.220;2023-08-24T12:14:54;31.50;99.90
6429;DHT22;3247;48.946;10.220;2023-08-24T12:17:20;31.50;99.90
6429;DHT22;3247;48.946;10.220;2023-08-24T12:19:53;31.60;99.90
6429;DHT22;3247;48.946;10.220;2023-08-24T12:22:21;31.60;99.90
6429;DHT22;3247;48.946;10.220;2023-08-24T12:24:46;31.60;99.90
6429;DHT22;3247;48.946;10.220;2023-08-24T12:27:18;31.70;99.90
6429;DHT22;3247;48.946;10.220;2023-08-24T12:29:45;31.60;99.90
6429;DHT22;3247;48.946;10.220;2023-08-24T12:32:16;31.60;99.90
6429;DHT22;3247;48.946;10.220;2023-08-24T12:34:45;31.60;99.90
6429;DHT22;3247;48.946;10.220;2023-08-24T12:37:10;31.60;99.90
6429;DHT22;3247;48.946;10.220;2023-08-24T12:39:36;31.80;99.90
6429;DHT22;3247;48.946;10.220;2023-08-24T12:42:03;31.60;99.90
6429;DHT22;3247;48.946;10.220;2023-08-24T12:44:28;31.60;99.90
6429;DHT22;3247;48.946;10.220;2023-08-24T12:46:54;31.50;99.90
6429;DHT22;3247;48.946;10.220;2023-08-24T12:49:19;31.80;99.90
6429;DHT22;3247;48.946;10.220;2023-08-24T12:51:45;31.60;99.90
6429;DHT22;3247;48.946;10.220;2023-08-24T12:54:11;31.50;99.90
6429;DHT22;3247;48.946;10.220;2023-08-24T12:56:38;31.50;99.90
6429;DHT22;3247;48.946;10.220;2023-08-24T12:59:03;31.50;99.90
6429;DHT22;3247;48.946;10.220;2023-08-24T13:01:32;31.60;99.90
6429;DHT22;3247;48.946;10.220;2023-08-24T13:03:57;31.50;99.90
6429;DHT22;3247;48.946;10.220;2023-08-24T13:06:23;31.60;99.90
6429;DHT22;3247;48.946;10.220;2023-08-24T13:08:48;31.70;99.90
6429;DHT22;3247;48.946;10.220;2023-08-24T13:11:14;31.70;99.90
6429;DHT22;3247;48.946;10.220;2023-08-24T13:13:41;31.60;99.90
6429;DHT22;3247;48.946;10.220;2023-08-24T13:16:06;31.60;99.90
6429;DHT22;3247;48.946;10.220;2023-08-24T13:18:32;31.80;99.90
6429;DHT22;3247;48.946;10.220;2023-08-24T13:20:57;31.80;99.90
6429;DHT22;3247;48.946;10.220;2023-08-24T13:23:23;31.80;99.90
6429;DHT22;3247;48.946;10.220;2023-08-24T13:25:48;31.80;99.90
6429;DHT22;3247;48.946;10.220;2023-08-24T13:28:14;31.90;99.90
6429;DHT22;3247;48.946;10.220;2023-08-24T13:30:39;31.90;99.90
6429;DHT22;3247;48.946;10.220;2023-08-24T13:33:05;31.90;99.90
6429;DHT22;3247;48.946;10.220;2023-08-24T13:35:32;31.90;99.90
6429;DHT22;3247;48.946;10.220;2023-08-24T13:37:57;31.60;99.90
6429;DHT22;3247;48.946;10.220;2023-08-24T13:40:23;31.50;99.90
6429;DHT22;3247;48.946;10.220;2023-08-24T13:42:48;31.70;99.90
6429;DHT22;3247;48.946;10.220;2023-08-24T13:45:14;31.50;99.90
6429;DHT22;3247;48.946;10.220;2023-08-24T13:47:39;31.40;99.90
6429;DHT22;3247;48.946;10.220;2023-08-24T13:50:05;31.30;99.90
6429;DHT22;3247;48.946;10.220;2023-08-24T13:52:30;31.30;99.90
6429;DHT22;3247;48.946;10.220;2023-08-24T13:54:56;31.40;99.90
6429;DHT22;3247;48.946;10.220;2023-08-24T13:57:21;31.60;99.90
6429;DHT22;3247;48.946;10.220;2023-08-24T13:59:47;31.50;99.90
6429;DHT22;3247;48.946;10.220;2023-08-24T14:02:16;31.50;99.90
6429;DHT22;3247;48.946;10.220;2023-08-24T14:04:41;31.60;99.90
6429;DHT22;3247;48.946;10.220;2023-08-24T14:07:06;31.60;99.90
6429;DHT22;3247;48.946;10.220;2023-08-24T14:09:32;31.60;99.90
6429;DHT22;3247;48.946;10.220;2023-08-24T14:11:58;31.60;99.90
6429;DHT22;3247;48.946;10.220;2023-08-24T14:14:23;31.30;99.90
6429;DHT22;3247;48.946;10.220;2023-08-24T14:16:55;31.60;99.90
6429;DHT22;3247;48.946;10.220;2023-08-24T14:19:21;31.50;99.90
6429;DHT22;3247;48.946;10.220;2023-08-24T14:21:47;31.50;99.90
6429;DHT22;3247;48.946;10.220;2023-08-24T14:24:12;31.50;99.90
6429;DHT22;3247;48.946;10.220;2023-08-24T14:26:37;31.50;99.90
6429;DHT22;3247;48.946;10.220;2023-08-24T14:29:04;31.50;99.90
6429;DHT22;3247;48.946;10.220;2023-08-24T14:31:36;31.30;99.90
6429;DHT22;3247;48.946;10.220;2023-08-24T14:34:01;31.50;99.90
6429;DHT22;3247;48.946;10.220;2023-08-24T14:36:28;31.50;99.90
6429;DHT22;3247;48.946;10.220;2023-08-24T14:38:53;31.50;99.90
6429;DHT22;3247;48.946;10.220;2023-08-24T14:41:19;31.50;99.90
6429;DHT22;3247;48.946;10.220;2023-08-24T14:43:44;31.30;99.90
6429;DHT22;3247;48.946;10.220;2023-08-24T14:46:11;31.10;99.90
6429;DHT22;3247;48.946;10.220;2023-08-24T14:48:36;31.10;99.90
6429;DHT22;3247;48.946;10.220;2023-08-24T14:51:01;31.10;99.90
6429;DHT22;3247;48.946;10.220;2023-08-24T14:53:27;31.10;99.90
6429;DHT22;3247;48.946;10.220;2023-08-24T14:55:53;31.00;99.90
6429;DHT22;3247;48.946;10.220;2023-08-24T14:58:20;31.10;99.90
6429;DHT22;3247;48.946;10.220;2023-08-24T15:00:46;31.00;99.90
6429;DHT22;3247;48.946;10.220;2023-08-24T15:03:12;30.90;99.90
6429;DHT22;3247;48.946;10.220;2023-08-24T15:05:40;30.90;99.90
6429;DHT22;3247;48.946;10.220;2023-08-24T15:08:06;30.80;99.90
6429;DHT22;3247;48.946;10.220;2023-08-24T15:10:31;30.80;99.90
6429;DHT22;3247;48.946;10.220;2023-08-24T15:12:56;30.70;99.90
6429;DHT22;3247;48.946;10.220;2023-08-24T15:15:22;30.70;99.90
6429;DHT22;3247;48.946;10.220;2023-08-24T15:17:47;30.70;99.90
6429;DHT22;3247;48.946;10.220;2023-08-24T15:20:13;30.60;99.90
6429;DHT22;3247;48.946;10.220;2023-08-24T15:22:39;30.60;99.90
6429;DHT22;3247;48.946;10.220;2023-08-24T15:25:05;30.50;99.90
6429;DHT22;3247;48.946;10.220;2023-08-24T15:27:30;30.40;99.90
6429;DHT22;3247;48.946;10.220;2023-08-24T15:29:56;30.50;99.90
6429;DHT22;3247;48.946;10.220;2023-08-24T15:32:21;30.40;99.90
6429;DHT22;3247;48.946;10.220;2023-08-24T15:34:47;30.40;99.90
6429;DHT22;3247;48.946;10.220;2023-08-24T15:37:13;30.30;99.90
6429;DHT22;3247;48.946;10.220;2023-08-24T15:39:39;30.20;99.90
6429;DHT22;3247;48.946;10.220;2023-08-24T15:42:05;30.10;99.90
6429;DHT22;3247;48.946;10.220;2023-08-24T15:44:31;29.90;99.90
6429;DHT22;3247;48.946;10.220;2023-08-24T15:46:56;29.80;99.90
6429;DHT22;3247;48.946;10.220;2023-08-24T15:49:22;29.80;99.90
6429;DHT22;3247;48.946;10.220;2023-08-24T15:51:48;29.60;99.90
6429;DHT22;3247;48.946;10.220;2023-08-24T15:54:14;29.40;99.90